LDSP/SPU METAR and TAF weather

Enter ICAO airport designator
Station Type Date Time Source
LDSP METAR 2019/06/18 16:30 UTC NOAA

LDSP 181630Z 23006KT CAVOK 28/18 Q1013 NOSIG


Station Type Date Time Source
LDSP Decoded METAR 2019/06/18 16:30 UTC NOAA

Split / Resnik, Croatia (LDSP) 43-32N 016-18E 21M
Jun 18, 2019 - 12:30 PM EDT / 2019.06.18 1630 UTC
Wind: from the SW (230 degrees) at 7 MPH (6 KT):0
Visibility: greater than 7 mile(s):0
Temperature: 82 F (28 C)
Dew Point: 64 F (18 C)
Relative Humidity: 54%
Pressure (altimeter): 29.91 in. Hg (1013 hPa)
ob: LDSP 181630Z 23006KT CAVOK 28/18 Q1013 NOSIG
cycle: 16

Station Type Date Time Source
LDSP TAF 2019/06/18 12:27 UTC NOAA

TAF LDSP 181125Z 1812/1912 23010KT 9999 FEW040 TX29/1812Z TN21/1904Z PROB40
TEMPO 1812/1817 VRB15KT TSRA FEW040CB FEW045TCU
BECMG 1816/1818 11006KT
BECMG 1909/1911 23008KT

Example: see airport list